Tiempo atmosférico en la estación meteorológica de Bossòst, Lleida (725 m.)



Fecha
DESCASC
Temp. máxima en grados centígrados (hora)
DESCASC
Temp. mínima en grados centígrados (hora)
DESCASC
Temp. media en grados centígrados
DESCASC
Racha de viento máxima en m/sg (hora)
DESCASC
Velocidad máxima media en intervalos de 10 minutos(hora)
DESCASC
Precipitaciones diarias en mm
DESCASC
Precipitaciones de 00:00 a 06:00 en mm
DESCASC
Precipitaciones de 06:00 a 12:00 en mm
DESCASC
Precipitaciones de 12:00 a 18:00 en mm
DESCASC
Precipitaciones de 18:00 a 24:00 en mm
DESCASC
18-08-2019 29.7 (14:10) 13.5 (06:50) 21.6 10 (15:20) 4.72 (15:10) 0.2 0 0 0 0.2
17-08-2019 29.1 (14:00) 10 (07:20) 19.6 8.06 (14:40) 3.33 (15:40) 0 0 0 0 0
16-08-2019 28.8 (14:30) 10 (08:40) 19.4 7.5 (15:40) 3.89 (06:00) 0 0 0 0 0
15-08-2019 19.3 (14:40) 10.8 (00:00) 15 7.22 (15:00) 3.06 (15:10) 0 0 0 0 0
14-08-2019 25.3 (15:20) 7.2 (00:00) 16.2 8.06 (17:50) 3.89 (16:50) 0 0 0 0 0
13-08-2019 17.3 (14:10) 11.7 (00:00) 14.5 6.11 (16:10) 2.5 (14:00) 0 0 0 0 0
12-08-2019 15.7 (16:00) 12.4 (00:00) 14 5.83 (12:50) 2.5 (13:10) 8.6 7.6 1 0 0
11-08-2019 18.5 (13:20) 15.1 (00:00) 16.8 7.22 (13:20) 2.78 (11:40) 4.2 0.6 2 1.6 0
10-08-2019 23.7 (00:00) 16 (00:00) 19.9 9.72 (00:30) 3.61 (13:50) 0 0 0 0 0
09-08-2019 36.7 (15:10) 17.1 (00:00) 26.9 10.28 (12:10) 4.44 (08:50) 0 0 0 0 0
08-08-2019 31.3 (15:10) 16.4 (00:00) 23.8 7.78 (15:40) 3.89 (07:50) 0.2 0.2 0 0 0
07-08-2019 26.7 (14:40) 17.8 (00:00) 22.3 8.06 (15:50) 3.33 (15:50) 0 0 0 0 0
06-08-2019 27.8 (18:00) 14.6 (00:00) 21.2 9.44 (14:30) 3.89 (14:40) 0 0 0 0 0
05-08-2019 24.3 (13:50) 15.1 (00:00) 19.7 8.61 (17:10) 3.89 (16:40) 0 0 0 0 0
04-08-2019 29.3 (15:10) 14.1 (00:00) 21.7 6.67 (16:00) 3.33 (15:00) 0 0 0 0 0
03-08-2019 29.5 (15:40) 12 (00:00) 20.8 7.5 (16:20) 4.17 (02:40) 0 0 0 0 0
02-08-2019 26 (16:00) 13.6 (00:00) 19.8 6.11 (16:00) 2.5 (16:00) 0 0 0 0 0
01-08-2019 -- (--) -- (--) -- -- (--) -- (--) -- -- -- -- --
31-07-2019 -- (--) -- (--) -- -- (--) -- (--) -- -- -- -- --
30-07-2019 18.3 (00:30) 13.6 (00:00) 15.9 5.83 (02:10) 2.5 (12:40) 0 0 0 0 0
29-07-2019 28.4 (14:50) 9.8 (00:00) 19.1 7.5 (17:00) 3.61 (15:20) 0 0 0 0 0
28-07-2019 22.2 (15:10) 11.3 (00:00) 16.8 6.39 (15:10) 3.06 (14:40) 0.2 0 0.2 0 0
27-07-2019 16.8 (00:00) 12.4 (00:00) 14.6 5 (14:30) 2.5 (15:40) 17.2 0.2 8 5.6 3.4
26-07-2019 21.9 (00:00) 16.7 (00:00) 19.3 6.39 (12:00) 3.33 (00:10) 3.6 0 0 3.6 0
25-07-2019 36.4 (13:30) 20.5 (00:00) 28.5 8.33 (20:40) 5.83 (20:40) 0 0 0 0 0
24-07-2019 -- (--) -- (--) -- -- (--) -- (--) -- -- -- -- --
23-07-2019 -- (--) -- (--) -- -- (--) -- (--) -- -- -- -- --
22-07-2019 -- (--) -- (--) -- -- (--) -- (--) -- -- -- -- --
21-07-2019 -- (--) -- (--) -- -- (--) -- (--) -- -- -- -- --

Gráficas

Temp. máximas Temp. mínimas Temp. medias Precipitaciones Rachas de viento máximas Velocidades máximas media en intervalos de 10 minutos

Datos horarios

Fecha y hora oficial Temperatura (ºC) Velocidad del viento (km/h) Dirección del viento Racha (km/h) Dirección de racha Precipitación (mm) Presión (hPa) Tendencia (hPa) Humedad (%)
2019-08-19 23:00:00 14.1 0 Calma 13 Este 0.6 -- -- 96
2019-08-19 22:00:00 14.1 8 Sudoeste 14 Sudoeste 0.2 -- -- 95
2019-08-19 21:00:00 14.3 0 Calma 9 Norte 0.2 -- -- 94
2019-08-19 20:00:00 14.8 0 Calma 7 Sudeste 0.2 -- -- 92
2019-08-19 19:00:00 15.6 2 Norte 13 Norte 0 -- -- 81
2019-08-19 18:00:00 16 4 Norte 17 Nordeste 0 -- -- 79
2019-08-19 17:00:00 16.4 5 Norte 18 Norte 0 -- -- 78
2019-08-19 16:00:00 17 4 Norte 18 Norte 0 -- -- 77
2019-08-19 15:00:00 17.1 7 Norte 18 Norte 0 -- -- 75
2019-08-19 14:00:00 16.1 5 Nordeste 17 Norte 0 -- -- 79
2019-08-19 13:00:00 16.5 6 Nordeste 17 Norte 0 -- -- 77
2019-08-19 12:00:00 16.7 5 Norte 17 Nordeste 0 -- -- 75
2019-08-19 11:00:00 16 6 Norte 15 Norte 0 -- -- 81
2019-08-19 10:00:00 14.9 4 Norte 9 Norte 0 -- -- 85
2019-08-19 09:00:00 14.3 4 Norte 9 Norte 0 -- -- 88
2019-08-19 08:00:00 14.2 3 Nordeste 12 Nordeste 0 -- -- 89
2019-08-19 07:00:00 14.9 5 Nordeste 13 Norte 0 -- -- 87
2019-08-19 06:00:00 15.4 5 Nordeste 16 Norte 0 -- -- 88
2019-08-19 05:00:00 15.7 6 Nordeste 18 Nordeste 0 -- -- 86
2019-08-19 04:00:00 15.9 3 Este 19 Nordeste 0 -- -- 86
2019-08-19 03:00:00 17.2 6 Norte 16 Noroeste 0 -- -- 86
2019-08-19 02:00:00 17.3 4 Nordeste 11 Norte 0 -- -- 89
2019-08-19 01:00:00 17.9 3 Sudeste 17 Nordeste 0 -- -- 90
2019-08-19 00:00:00 19.3 6 Nordeste 17 Norte 0.2 -- -- 89
2019-08-18 23:00:00 20.7 4 Norte 12 Nordeste 0 -- -- 80
2019-08-18 22:00:00 21.1 3 Nordeste 10 Este 0 -- -- 77
2019-08-18 21:00:00 21.5 4 Norte 14 Norte 0 -- -- 76
2019-08-18 20:00:00 22.1 4 Norte 21 Norte 0 -- -- 76
2019-08-18 19:00:00 23.2 9 Norte 22 Norte 0 -- -- 73
2019-08-18 18:00:00 24.2 9 Norte 26 Norte 0 -- -- 69
2019-08-18 17:00:00 26.2 10 Norte 30 Norte 0 -- -- 61
2019-08-18 16:00:00 27.9 14 Norte 36 Norte 0 -- -- 55
2019-08-18 15:00:00 28.9 16 Norte 31 Norte 0 -- -- 51
2019-08-18 14:00:00 29.5 12 Norte 28 Norte 0 -- -- 48
2019-08-18 13:00:00 29.4 11 Norte 27 Nordeste 0 -- -- 44
2019-08-18 12:00:00 28.9 10 Nordeste 27 Norte 0 -- -- 43
2019-08-18 11:00:00 25.7 5 Nordeste 15 Este 0 -- -- 53
2019-08-18 10:00:00 21.5 4 Sudeste 15 Este 0 -- -- 66
2019-08-18 09:00:00 15.4 3 Este 8 Nordeste 0 -- -- 87
2019-08-18 08:00:00 14.2 3 Sur 10 Oeste 0 -- -- 88
2019-08-18 07:00:00 13.6 3 Sur 9 Oeste 0 -- -- 90
2019-08-18 06:00:00 14 3 Sudoeste 8 Sur 0 -- -- 89
2019-08-18 05:00:00 14 3 Sur 7 Oeste 0 -- -- 91
2019-08-18 04:00:00 14.3 2 Sur 6 Noroeste 0 -- -- 90
2019-08-18 03:00:00 15 0 Calma 7 Norte 0 -- -- 92
2019-08-18 02:00:00 15.3 2 Sudoeste 9 Noroeste 0 -- -- 93
2019-08-18 01:00:00 16.4 3 Sudoeste 15 Sudoeste 0 -- -- 89
2019-08-18 00:00:00 17.2 8 Sur 13 Sur 0 -- -- 89
2019-08-17 23:00:00 18.3 2 Este 11 Sudoeste 0 -- -- 85
2019-08-17 22:00:00 19.2 0 Calma 5 Sudoeste 0 -- -- 82
2019-08-17 21:00:00 21.3 0 Calma 7 Sudoeste 0 -- -- 76
2019-08-17 20:00:00 24.5 0 Calma 14 Norte 0 -- -- 64
2019-08-17 19:00:00 26.9 7 Norte 18 Norte 0 -- -- 54
2019-08-17 18:00:00 28.9 8 Norte 23 Norte 0 -- -- 50
2019-08-17 17:00:00 29 10 Norte 27 Norte 0 -- -- 50
2019-08-17 16:00:00 28.7 9 Norte 26 Norte 0 -- -- 50
2019-08-17 15:00:00 28.6 10 Norte 29 Norte 0 -- -- 49
2019-08-17 14:00:00 29.1 8 Norte 22 Norte 0 -- -- 46
2019-08-17 13:00:00 28.2 8 Norte 19 Nordeste 0 -- -- 43
2019-08-17 12:00:00 26.2 4 Nordeste 7 Nordeste 0 -- -- 44
2019-08-17 11:00:00 21.4 0 Calma 5 Sudeste 0 -- -- 62
2019-08-17 10:00:00 15.8 0 Calma 6 Sur 0 -- -- 81
2019-08-17 09:00:00 11 0 Calma 6 Sudoeste 0 -- -- 93
2019-08-17 08:00:00 10.6 2 Sur 6 Sur 0 -- -- 92
2019-08-17 07:00:00 10.2 0 Calma 8 Sudoeste 0 -- -- 92
2019-08-17 06:00:00 10.9 3 Sudoeste 6 Sur 0 -- -- 89
2019-08-17 05:00:00 11.6 3 Sur 7 Sudoeste 0 -- -- 85
2019-08-17 04:00:00 13 4 Sur 14 Sur 0 -- -- 79
2019-08-17 03:00:00 12.7 3 Sur 7 Sudoeste 0 -- -- 81
2019-08-17 02:00:00 13.9 4 Sur 14 Sudoeste 0 -- -- 75
2019-08-17 01:00:00 13.8 4 Sur 10 Sur 0 -- -- 79
2019-08-17 00:00:00 15.2 5 Sur 16 Sudoeste 0 -- -- 72
2019-08-16 23:00:00 16.3 9 Sudoeste 19 Sudoeste 0 -- -- 70
2019-08-16 22:00:00 17.1 7 Sudoeste 12 Sudoeste 0 -- -- 73
2019-08-16 21:00:00 18.5 0 Calma 4 Sudoeste 0 -- -- 73
2019-08-16 20:00:00 21.4 2 Sudoeste 4 Sudoeste 0 -- -- 70
2019-08-16 19:00:00 25.3 3 Noroeste 22 Norte 0 -- -- 54
2019-08-16 18:00:00 27.3 6 Norte 25 Norte 0 -- -- 45
2019-08-16 17:00:00 27.8 11 Norte 24 Nordeste 0 -- -- 45
2019-08-16 16:00:00 28.1 10 Norte 27 Norte 0 -- -- 42
2019-08-16 15:00:00 28.3 12 Norte 25 Norte 0 -- -- 41
2019-08-16 14:00:00 28.3 6 Norte 17 Norte 0 -- -- 36
2019-08-16 13:00:00 26.6 4 Este 9 Este 0 -- -- 44
2019-08-16 12:00:00 22.9 2 Este 7 Nordeste 0 -- -- 52
2019-08-16 11:00:00 17.9 2 Sudeste 4 Sur 0 -- -- 71
2019-08-16 10:00:00 14 0 Calma 5 Sur 0 -- -- 84
2019-08-16 09:00:00 10.1 0 Calma 10 Sudoeste 0 -- -- 94
2019-08-16 08:00:00 10.3 7 Sudoeste 17 Sudoeste 0 -- -- 93
2019-08-16 07:00:00 10.7 12 Sudoeste 21 Sudoeste 0 -- -- 92
2019-08-16 06:00:00 11.9 14 Sudoeste 21 Sudoeste 0 -- -- 90
2019-08-16 05:00:00 12.4 7 Sudoeste 14 Sudoeste 0 -- -- 92
2019-08-16 04:00:00 13.3 4 Sur 13 Sudoeste 0 -- -- 91
2019-08-16 03:00:00 14.8 8 Sudoeste 14 Sudoeste 0 -- -- 85
2019-08-16 02:00:00 14.5 6 Sudoeste 10 Oeste 0 -- -- 89
2019-08-16 01:00:00 14.3 4 Sur 8 Sudoeste 0 -- -- 90
2019-08-16 00:00:00 14.4 0 Calma 7 Sudoeste 0 -- -- 92
2019-08-15 23:00:00 14.4 6 Sudoeste 14 Sudoeste 0 -- -- 90
2019-08-15 22:00:00 15.8 5 Sur 8 Sudoeste 0 -- -- 85
2019-08-15 21:00:00 16.7 2 Sudoeste 6 Nordeste 0 -- -- 81
2019-08-15 20:00:00 17.1 3 Nordeste 14 Norte 0 -- -- 76
2019-08-15 19:00:00 17.4 6 Norte 16 Norte 0 -- -- 77
2019-08-15 18:00:00 17.6 5 Norte 22 Norte 0 -- -- 77
2019-08-15 17:00:00 17.8 6 Norte 19 Norte 0 -- -- 76
2019-08-15 16:00:00 17.8 9 Norte 25 Norte 0 -- -- 76
2019-08-15 15:00:00 18.9 11 Norte 26 Norte 0 -- -- 73
2019-08-15 14:00:00 18.4 8 Norte 22 Nordeste 0 -- -- 76
2019-08-15 13:00:00 18 7 Norte 17 Nordeste 0 -- -- 80
2019-08-15 12:00:00 17.2 7 Norte 17 Norte 0 -- -- 82
2019-08-15 11:00:00 17 5 Nordeste 13 Nordeste 0 -- -- 78
2019-08-15 10:00:00 15.2 0 Calma 6 Sudoeste 0 -- -- 84
2019-08-15 09:00:00 13.4 2 Sudoeste 8 Sudoeste 0 -- -- 90
2019-08-15 08:00:00 11.9 5 Sudoeste 12 Sudoeste 0 -- -- 94
2019-08-15 07:00:00 11.1 7 Sudoeste 14 Sudoeste 0 -- -- 96
2019-08-15 06:00:00 11 3 Sur 9 Sudoeste 0 -- -- 96
2019-08-15 05:00:00 10.9 3 Sudoeste 8 Sudoeste 0 -- -- 96
2019-08-15 04:00:00 11.2 2 Sudeste 5 Sur 0 -- -- 95
2019-08-15 03:00:00 11.7 2 Sur 10 Sudoeste 0 -- -- 95
2019-08-15 02:00:00 11.9 4 Noroeste 8 Sur 0 -- -- 92
2019-08-15 01:00:00 12.9 9 Sur 12 Sur 0 -- -- 90
2019-08-15 00:00:00 13.8 0 Calma 13 Sur 0 -- -- 86
2019-08-14 23:00:00 14.9 3 Sudoeste 9 Sudoeste 0 -- -- 83
2019-08-14 22:00:00 16.2 0 Calma 4 Sudoeste 0 -- -- 79
2019-08-14 21:00:00 18.4 0 Calma 3 Oeste 0 -- -- 72
2019-08-14 20:00:00 20.6 3 Norte 16 Norte 0 -- -- 60
2019-08-14 19:00:00 23.1 3 Norte 24 Nordeste 0 -- -- 48
2019-08-14 18:00:00 24.6 9 Norte 29 Norte 0 -- -- 44
2019-08-14 17:00:00 25 12 Norte 27 Norte 0 -- -- 43
2019-08-14 16:00:00 25.2 12 Norte 24 Nordeste 0 -- -- 41
2019-08-14 15:00:00 25.1 9 Norte 21 Nordeste 0 -- -- 40
2019-08-14 14:00:00 24.3 8 Norte 20 Norte 0 -- -- 36
2019-08-14 13:00:00 22.2 7 Norte 16 Norte 0 -- -- 42
2019-08-14 12:00:00 20 3 Este 7 Nordeste 0 -- -- 54
2019-08-14 11:00:00 16.1 2 Este 4 Sur 0 -- -- 69
2019-08-14 10:00:00 11.9 0 Calma 4 Sudeste 0 -- -- 86
2019-08-14 09:00:00 8 0 Calma 17 Sudoeste 0 -- -- 96
2019-08-14 08:00:00 7.9 13 Sudoeste 19 Sudoeste 0 -- -- 96
2019-08-14 07:00:00 7.2 2 Sudoeste 8 Sudoeste 0 -- -- 97
2019-08-14 06:00:00 8.1 2 Sudeste 10 Sudoeste 0 -- -- 98
2019-08-14 05:00:00 8.2 0 Calma 13 Sudoeste 0 -- -- 97
2019-08-14 04:00:00 8.7 5 Sudoeste 13 Sudoeste 0 -- -- 98
2019-08-14 03:00:00 9 0 Calma 5 Sur 0 -- -- 97
2019-08-14 02:00:00 10 0 Calma 7 Sur 0 -- -- 95
2019-08-14 01:00:00 11.2 2 Sudoeste 7 Sudoeste 0 -- -- 92
2019-08-14 00:00:00 12.8 4 Sudoeste 6 Sudoeste 0 -- -- 91
2019-08-13 23:00:00 13.3 0 Calma 0 Calma 0 -- -- 90
2019-08-13 22:00:00 13.8 0 Calma 3 Sur 0 -- -- 85
2019-08-13 21:00:00 14.2 0 Calma 3 Norte 0 -- -- 85
2019-08-13 20:00:00 14.9 0 Calma 7 Norte 0 -- -- 78
2019-08-13 19:00:00 15.6 4 Norte 15 Norte 0 -- -- 74
2019-08-13 18:00:00 15.7 7 Norte 19 Nordeste 0 -- -- 74
2019-08-13 17:00:00 16.1 6 Norte 22 Norte 0 -- -- 71
2019-08-13 16:00:00 16.4 7 Norte 21 Norte 0 -- -- 71
2019-08-13 15:00:00 16.7 9 Norte 19 Norte 0 -- -- 70
2019-08-13 14:00:00 17.1 9 Norte 20 Norte 0 -- -- 68
2019-08-13 13:00:00 15.5 7 Norte 18 Norte 0 -- -- 71
2019-08-13 12:00:00 15 8 Norte 14 Norte 0 -- -- 75
2019-08-13 11:00:00 13.7 5 Norte 17 Norte 0 -- -- 80
2019-08-13 10:00:00 13.3 6 Norte 14 Norte 0 -- -- 87
2019-08-13 09:00:00 12.6 3 Norte 6 Norte 0 -- -- 92
2019-08-13 08:00:00 11.9 0 Calma 6 Norte 0 -- -- 96
2019-08-13 07:00:00 11.8 3 Norte 6 Norte 0 -- -- 97
2019-08-13 06:00:00 12 0 Calma 4 Este 0 -- -- 96
2019-08-13 05:00:00 11.8 0 Calma 4 Sudoeste 0 -- -- 96
2019-08-13 04:00:00 11.9 3 Sudoeste 10 Sudoeste 0 -- -- 96
2019-08-13 03:00:00 12 2 Este 4 Este 0 -- -- 96
2019-08-13 02:00:00 12.2 0 Calma 2 Noroeste 0 -- -- 96
2019-08-13 01:00:00 12.3 0 Calma 2 Noroeste 0 -- -- 95
2019-08-13 00:00:00 12.4 0 Calma 4 Oeste 0 -- -- 94
2019-08-12 23:00:00 12.6 0 Calma 11 Nordeste 0 -- -- 91
2019-08-12 22:00:00 13.1 3 Norte 8 Norte 0 -- -- 89
2019-08-12 21:00:00 13.8 4 Nordeste 11 Nordeste 0 -- -- 82
2019-08-12 20:00:00 14.3 3 Este 11 Nordeste 0 -- -- 80
2019-08-12 19:00:00 14.7 0 Calma 10 Nordeste 0 -- -- 82
2019-08-12 18:00:00 14.9 3 Norte 14 Norte 0 -- -- 79
2019-08-12 17:00:00 15.4 3 Norte 15 Noroeste 0 -- -- 80
2019-08-12 16:00:00 15.7 5 Norte 15 Norte 0 -- -- 78
2019-08-12 15:00:00 15.1 5 Norte 18 Norte 0 -- -- 83
2019-08-12 14:00:00 15 4 Norte 19 Norte 0 -- -- 87
2019-08-12 13:00:00 15.2 9 Nordeste 21 Nordeste 0 -- -- 84
2019-08-12 12:00:00 14.8 5 Nordeste 18 Nordeste 0.2 -- -- 88
2019-08-12 11:00:00 14.3 4 Norte 15 Nordeste 0 -- -- 90
2019-08-12 10:00:00 13.8 4 Nordeste 12 Nordeste 0.2 -- -- 94
2019-08-12 09:00:00 13.8 0 Calma 5 Nordeste 0.4 -- -- 98
2019-08-12 08:00:00 13.7 2 Nordeste 4 Nordeste 0.2 -- -- 98
2019-08-12 07:00:00 13.6 3 Nordeste 5 Nordeste 0 -- -- 98
2019-08-12 06:00:00 13.7 0 Calma 4 Sudoeste 0.4 -- -- 98
2019-08-12 05:00:00 13.7 2 Sur 6 Norte 1 -- -- 97
2019-08-12 04:00:00 13.7 2 Este 9 Nordeste 4 -- -- 98
2019-08-12 03:00:00 13.9 3 Norte 7 Nordeste 0.8 -- -- 97
2019-08-12 02:00:00 14.4 0 Calma 7 Norte 1.4 -- -- 95
2019-08-12 01:00:00 14.9 0 Calma 6 Nordeste 0 -- -- 91
2019-08-12 00:00:00 15.1 3 Nordeste 8 Norte 0 -- -- 90
2019-08-11 23:00:00 15.7 0 Calma 6 Norte 0 -- -- 87
2019-08-11 22:00:00 16.2 3 Sudeste 9 Nordeste 0 -- -- 83
2019-08-11 21:00:00 16.5 2 Nordeste 10 Norte 0 -- -- 83
2019-08-11 20:00:00 16.9 2 Norte 17 Norte 0 -- -- 80
2019-08-11 19:00:00 17.4 4 Norte 17 Norte 0 -- -- 78
2019-08-11 18:00:00 17.7 5 Norte 19 Norte 0 -- -- 76
2019-08-11 17:00:00 17.6 6 Norte 21 Nordeste 0.2 -- -- 80
2019-08-11 16:00:00 17.7 6 Norte 22 Norte 0 -- -- 81
2019-08-11 15:00:00 17.6 8 Norte 21 Nordeste 0 -- -- 84
2019-08-11 14:00:00 17.6 7 Norte 26 Nordeste 0 -- -- 84
2019-08-11 13:00:00 18.1 3 Norte 16 Norte 1.4 -- -- 89
2019-08-11 12:00:00 16.7 7 Norte 25 Norte 1.2 -- -- 90
2019-08-11 11:00:00 17.4 8 Norte 18 Norte 0 -- -- 89
2019-08-11 10:00:00 16.7 2 Norte 8 Nordeste 0 -- -- 95
2019-08-11 09:00:00 15.9 3 Norte 8 Norte 0 -- -- 97
2019-08-11 08:00:00 15.5 4 Este 10 Nordeste 0.8 -- -- 97
2019-08-11 07:00:00 15.6 3 Noroeste 12 Nordeste 0 -- -- 97
2019-08-11 06:00:00 16 2 Este 6 Este 0.6 -- -- 93
2019-08-11 05:00:00 16.2 0 Calma 5 Sur 0 -- -- 91
2019-08-11 04:00:00 16.1 3 Noroeste 9 Nordeste 0 -- -- 91
2019-08-11 03:00:00 16.2 0 Calma 8 Sudoeste 0 -- -- 90
2019-08-11 02:00:00 16.2 5 Sur 8 Sudoeste 0 -- -- 90
2019-08-11 01:00:00 16.3 2 Sur 6 Noroeste 0 -- -- 89
2019-08-11 00:00:00 16.9 2 Oeste 5 Este 0 -- -- 86
2019-08-10 23:00:00 18.1 0 Calma 4 Nordeste 0 -- -- 83
2019-08-10 22:00:00 18.9 0 Calma 6 Nordeste 0 -- -- 81
2019-08-10 21:00:00 19.9 2 Nordeste 8 Norte 0 -- -- 74
2019-08-10 20:00:00 20.4 4 Norte 13 Norte 0 -- -- 72
2019-08-10 19:00:00 20.4 6 Norte 19 Nordeste 0 -- -- 72
2019-08-10 18:00:00 20.7 6 Norte 19 Norte 0 -- -- 70
2019-08-10 17:00:00 21 8 Norte 21 Norte 0 -- -- 69
2019-08-10 16:00:00 21.1 10 Norte 23 Nordeste 0 -- -- 67
2019-08-10 15:00:00 21.5 6 Norte 21 Norte 0 -- -- 66
2019-08-10 14:00:00 20.8 10 Norte 24 Norte 0 -- -- 67
2019-08-10 13:00:00 21.2 10 Norte 19 Norte 0 -- -- 67
2019-08-10 12:00:00 21.4 4 Este 17 Nordeste 0 -- -- 66
2019-08-10 11:00:00 19.1 3 Norte 9 Nordeste 0 -- -- 76
2019-08-10 10:00:00 17.7 2 Norte 4 Norte 0 -- -- 82
2019-08-10 09:00:00 16.8 0 Calma 5 Norte 0 -- -- 88
2019-08-10 08:00:00 16.1 3 Nordeste 5 Norte 0 -- -- 91
2019-08-10 07:00:00 16.2 0 Calma 6 Nordeste 0 -- -- 91
2019-08-10 06:00:00 16.4 2 Nordeste 12 Norte 0 -- -- 91
2019-08-10 05:00:00 16.9 6 Nordeste 17 Norte 0 -- -- 88
2019-08-10 04:00:00 19 7 Nordeste 19 Norte 0 -- -- 86
2019-08-10 03:00:00 19.7 5 Nordeste 15 Este 0 -- -- 87
2019-08-10 02:00:00 20.7 5 Nordeste 19 Norte 0 -- -- 85
2019-08-10 01:00:00 21.2 8 Norte 35 Norte 0 -- -- 83
2019-08-10 00:00:00 23.7 5 Norte 16 Nordeste 0 -- -- 78
2019-08-09 23:00:00 23.7 2 Sudeste 6 Sudoeste 0 -- -- 78
2019-08-09 22:00:00 24.8 0 Calma 11 Este 0 -- -- 74
2019-08-09 21:00:00 26 4 Norte 15 Nordeste 0 -- -- 68
2019-08-09 20:00:00 28.3 2 Nordeste 20 Norte 0 -- -- 59
2019-08-09 19:00:00 29.8 3 Norte 18 Norte 0 -- -- 54
2019-08-09 18:00:00 30.8 7 Norte 25 Norte 0 -- -- 51
2019-08-09 17:00:00 33.3 13 Norte 34 Norte 0 -- -- 44
2019-08-09 16:00:00 33.6 13 Norte 35 Norte 0 -- -- 40
2019-08-09 15:00:00 36.6 12 Sur 29 Sur 0 -- -- 25
2019-08-09 14:00:00 36.2 14 Sudoeste 34 Sur 0 -- -- 24
2019-08-09 13:00:00 35.7 8 Sudoeste 37 Sur 0 -- -- 26
2019-08-09 12:00:00 33.8 14 Sur 28 Sur 0 -- -- 29
2019-08-09 11:00:00 31 4 Este 10 Sudeste 0 -- -- 41
2019-08-09 10:00:00 25.7 5 Este 21 Sudoeste 0 -- -- 54
2019-08-09 09:00:00 22.5 14 Sudoeste 24 Sudoeste 0 -- -- 59
2019-08-09 08:00:00 23.2 11 Sudoeste 23 Sur 0 -- -- 54
2019-08-09 07:00:00 21.5 5 Sudoeste 22 Sudoeste 0 -- -- 63
2019-08-09 06:00:00 23.1 11 Sudoeste 19 Sudoeste 0 -- -- 57
2019-08-09 05:00:00 20.2 6 Sur 18 Sudoeste 0 -- -- 70
2019-08-09 04:00:00 19 7 Sudoeste 15 Sudoeste 0 -- -- 76
2019-08-09 03:00:00 17.2 3 Sudoeste 9 Sur 0 -- -- 87
2019-08-09 02:00:00 17.7 2 Sudoeste 11 Sur 0 -- -- 86
2019-08-09 01:00:00 18 4 Sudoeste 9 Sudoeste 0 -- -- 88
2019-08-09 00:00:00 19.1 2 Oeste 12 Sudoeste 0 -- -- 85
2019-08-08 23:00:00 20.6 7 Sudoeste 14 Sudoeste 0 -- -- 80
2019-08-08 22:00:00 21.5 6 Sudoeste 11 Sudoeste 0 -- -- 78
2019-08-08 21:00:00 23.5 0 Calma 4 Sur 0 -- -- 74
2019-08-08 20:00:00 26.1 2 Sudoeste 13 Norte 0 -- -- 66
2019-08-08 19:00:00 29.4 5 Norte 20 Norte 0 -- -- 51
2019-08-08 18:00:00 30.5 10 Norte 27 Nordeste 0 -- -- 49
2019-08-08 17:00:00 31.1 10 Norte 27 Nordeste 0 -- -- 47
2019-08-08 16:00:00 31.2 10 Norte 28 Nordeste 0 -- -- 46
2019-08-08 15:00:00 31.2 11 Norte 23 Nordeste 0 -- -- 44
2019-08-08 14:00:00 30.2 9 Norte 19 Norte 0 -- -- 44
2019-08-08 13:00:00 28.9 8 Norte 17 Norte 0 -- -- 47
2019-08-08 12:00:00 26.8 4 Nordeste 10 Nordeste 0 -- -- 55
2019-08-08 11:00:00 23.2 3 Este 8 Este 0 -- -- 67
2019-08-08 10:00:00 20.1 2 Este 5 Nordeste 0 -- -- 82
2019-08-08 09:00:00 16.6 0 Calma 20 Sudoeste 0 -- -- 94
2019-08-08 08:00:00 16.5 14 Sudoeste 20 Sudoeste 0 -- -- 95
2019-08-08 07:00:00 16.7 9 Sudoeste 15 Sudoeste 0 -- -- 96
2019-08-08 06:00:00 17.4 4 Sur 10 Sudoeste 0 -- -- 96
2019-08-08 05:00:00 17.7 3 Sudoeste 8 Sudoeste 0.2 -- -- 96
2019-08-08 04:00:00 17.7 0 Calma 6 Sur 0 -- -- 94
2019-08-08 03:00:00 17.8 2 Sur 10 Sudoeste 0 -- -- 94
2019-08-08 02:00:00 17.9 6 Sur 17 Sudoeste 0 -- -- 93
2019-08-08 01:00:00 17.4 7 Sudoeste 10 Sudoeste 0 -- -- 95
2019-08-08 00:00:00 17.8 3 Sur 9 Sudoeste 0 -- -- 95
2019-08-07 23:00:00 18.6 0 Calma 7 Sur 0 -- -- 93
2019-08-07 22:00:00 19.4 2 Sur 6 Sudoeste 0 -- -- 91
2019-08-07 21:00:00 21 0 Calma 6 Este 0 -- -- 81
2019-08-07 20:00:00 21.5 2 Norte 12 Norte 0 -- -- 76
2019-08-07 19:00:00 22 5 Norte 17 Nordeste 0 -- -- 73
2019-08-07 18:00:00 22.4 9 Norte 23 Norte 0 -- -- 72
2019-08-07 17:00:00 23.9 8 Norte 23 Norte 0 -- -- 68
2019-08-07 16:00:00 24.5 12 Norte 29 Norte 0 -- -- 66
2019-08-07 15:00:00 25.4 9 Norte 23 Norte 0 -- -- 61
2019-08-07 14:00:00 25.6 7 Norte 19 Norte 0 -- -- 61
2019-08-07 13:00:00 25.3 4 Nordeste 12 Nordeste 0 -- -- 59
2019-08-07 12:00:00 24.1 3 Nordeste 7 Nordeste 0 -- -- 65
2019-08-07 11:00:00 21.6 3 Nordeste 9 Norte 0 -- -- 74
2019-08-07 10:00:00 18.9 3 Nordeste 8 Norte 0 -- -- 87
2019-08-07 09:00:00 18.4 0 Calma 5 Nordeste 0 -- -- 88
2019-08-07 08:00:00 18.2 0 Calma 11 Nordeste 0 -- -- 89
2019-08-07 07:00:00 18.3 4 Este 10 Este 0 -- -- 89
2019-08-07 06:00:00 18.9 5 Nordeste 14 Este 0 -- -- 88
2019-08-07 05:00:00 19.2 0 Calma 5 Nordeste 0 -- -- 90
2019-08-07 04:00:00 19.2 0 Calma 4 Sur 0 -- -- 89
2019-08-07 03:00:00 19 0 Calma 6 Sudoeste 0 -- -- 88
2019-08-07 02:00:00 18.7 4 Sudoeste 8 Sudoeste 0 -- -- 88
2019-08-07 01:00:00 18.4 0 Calma 3 Oeste 0 -- -- 92
2019-08-07 00:00:00 18.3 2 Este 4 Sudeste 0 -- -- 91
2019-08-06 23:00:00 19 0 Calma 5 Oeste 0 -- -- 88
2019-08-06 22:00:00 20.6 0 Calma 4 Norte 0 -- -- 83
2019-08-06 21:00:00 22.8 0 Calma 8 Nordeste 0 -- -- 76
2019-08-06 20:00:00 24.3 5 Nordeste 18 Norte 0 -- -- 68
2019-08-06 19:00:00 26.7 7 Norte 18 Norte 0 -- -- 57
2019-08-06 18:00:00 27.8 10 Norte 22 Nordeste 0 -- -- 57
2019-08-06 17:00:00 26.7 10 Norte 29 Nordeste 0 -- -- 62
2019-08-06 16:00:00 25.9 12 Nordeste 29 Norte 0 -- -- 63
2019-08-06 15:00:00 26.3 12 Norte 34 Norte 0 -- -- 63
2019-08-06 14:00:00 27.4 10 Norte 23 Norte 0 -- -- 60
2019-08-06 13:00:00 26.5 7 Norte 17 Nordeste 0 -- -- 62
2019-08-06 12:00:00 24.5 6 Norte 14 Norte 0 -- -- 69
2019-08-06 11:00:00 22.1 8 Norte 15 Norte 0 -- -- 73
2019-08-06 10:00:00 19.4 0 Calma 5 Sur 0 -- -- 83
2019-08-06 09:00:00 15.1 2 Sudoeste 8 Oeste 0 -- -- 94
2019-08-06 08:00:00 14.8 3 Sur 7 Sudeste 0 -- -- 95
2019-08-06 07:00:00 14.9 3 Sudoeste 12 Sudoeste 0 -- -- 94
2019-08-06 06:00:00 16 5 Sudoeste 12 Sudoeste 0 -- -- 91
2019-08-06 05:00:00 17.1 6 Sudoeste 12 Oeste 0 -- -- 89
2019-08-06 04:00:00 17.3 5 Sudoeste 11 Sudoeste 0 -- -- 90
2019-08-06 03:00:00 17.6 6 Sudoeste 10 Sudoeste 0 -- -- 90
2019-08-06 02:00:00 18.2 5 Sudoeste 11 Sudoeste 0 -- -- 90
2019-08-06 01:00:00 19.2 3 Sudoeste 5 Sudoeste 0 -- -- 90
2019-08-06 00:00:00 19.9 0 Calma 3 Nordeste 0 -- -- 87
2019-08-05 23:00:00 20.1 0 Calma 3 Nordeste 0 -- -- 87
2019-08-05 22:00:00 20.2 2 Norte 9 Norte 0 -- -- 85
2019-08-05 21:00:00 20.7 3 Norte 8 Norte 0 -- -- 83
2019-08-05 20:00:00 21 4 Nordeste 15 Norte 0 -- -- 81
2019-08-05 19:00:00 21.9 8 Norte 24 Norte 0 -- -- 78
2019-08-05 18:00:00 22.5 10 Norte 31 Nordeste 0 -- -- 76
2019-08-05 17:00:00 23.6 11 Norte 28 Nordeste 0 -- -- 72
2019-08-05 16:00:00 23.7 10 Norte 26 Norte 0 -- -- 72
2019-08-05 15:00:00 23.9 10 Norte 26 Norte 0 -- -- 73
2019-08-05 14:00:00 24.2 12 Norte 27 Nordeste 0 -- -- 70
2019-08-05 13:00:00 23.9 10 Norte 22 Norte 0 -- -- 70
2019-08-05 12:00:00 22.9 9 Norte 17 Norte 0 -- -- 72
2019-08-05 11:00:00 21.9 6 Norte 13 Nordeste 0 -- -- 75
2019-08-05 10:00:00 19.8 2 Este 5 Sudoeste 0 -- -- 82
2019-08-05 09:00:00 16 3 Sur 10 Sudoeste 0 -- -- 92
2019-08-05 08:00:00 15.2 3 Sudoeste 8 Sudoeste 0 -- -- 95
2019-08-05 07:00:00 15.6 3 Sudoeste 6 Sur 0 -- -- 94
2019-08-05 06:00:00 16.9 3 Sur 15 Sur 0 -- -- 91
2019-08-05 05:00:00 18.3 8 Sudoeste 17 Sur 0 -- -- 87
2019-08-05 04:00:00 18.9 0 Calma 7 Sudoeste 0 -- -- 89
2019-08-05 03:00:00 18.6 2 Sudoeste 9 Sudoeste 0 -- -- 90
2019-08-05 02:00:00 18.4 5 Sudoeste 10 Sudoeste 0 -- -- 91
2019-08-05 01:00:00 18.1 3 Sudoeste 8 Sudoeste 0 -- -- 94
2019-08-05 00:00:00 18.2 0 Calma 6 Sudoeste 0 -- -- 92
2019-08-04 23:00:00 19.5 0 Calma 5 Sudoeste 0 -- -- 87
2019-08-04 22:00:00 21.1 0 Calma 5 Sur 0 -- -- 81
2019-08-04 21:00:00 24.1 0 Calma 10 Este 0 -- -- 71
2019-08-04 20:00:00 25.3 5 Norte 12 Nordeste 0 -- -- 65
2019-08-04 19:00:00 26.3 4 Norte 22 Norte 0 -- -- 64
2019-08-04 18:00:00 28.1 9 Norte 24 Norte 0 -- -- 60
2019-08-04 17:00:00 27.9 7 Norte 23 Norte 0 -- -- 61
2019-08-04 16:00:00 29.3 9 Norte 24 Norte 0 -- -- 55
2019-08-04 15:00:00 28.9 12 Norte 23 Norte 0 -- -- 54
2019-08-04 14:00:00 28.2 10 Norte 22 Norte 0 -- -- 52
2019-08-04 13:00:00 27.5 8 Norte 18 Nordeste 0 -- -- 51
2019-08-04 12:00:00 -- -- -- -- -- -- -- -- --
2019-08-04 11:00:00 -- -- -- -- -- -- -- -- --
2019-08-04 10:00:00 -- -- -- -- -- -- -- -- --
2019-08-04 09:00:00 -- -- -- -- -- -- -- -- --
2019-08-04 08:00:00 -- -- -- -- -- -- -- -- --
2019-08-04 07:00:00 -- -- -- -- -- -- -- -- --
2019-08-04 06:00:00 -- -- -- -- -- -- -- -- --
2019-08-04 05:00:00 -- -- -- -- -- -- -- -- --
2019-08-04 04:00:00 -- -- -- -- -- -- -- -- --
2019-08-04 03:00:00 -- -- -- -- -- -- -- -- --
2019-08-04 02:00:00 -- -- -- -- -- -- -- -- --
2019-08-04 01:00:00 -- -- -- -- -- -- -- -- --
2019-08-04 00:00:00 -- -- -- -- -- -- -- -- --
2019-08-03 23:00:00 -- -- -- -- -- -- -- -- --
2019-08-03 22:00:00 -- -- -- -- -- -- -- -- --
2019-08-03 21:00:00 -- -- -- -- -- -- -- -- --
2019-08-03 20:00:00 -- -- -- -- -- -- -- -- --
2019-08-03 19:00:00 -- -- -- -- -- -- -- -- --
2019-08-03 18:00:00 -- -- -- -- -- -- -- -- --
2019-08-03 17:00:00 -- -- -- -- -- -- -- -- --
2019-08-03 16:00:00 -- -- -- -- -- -- -- -- --
2019-08-03 15:00:00 -- -- -- -- -- -- -- -- --
2019-08-03 14:00:00 -- -- -- -- -- -- -- -- --
2019-08-03 13:00:00 -- -- -- -- -- -- -- -- --
2019-08-03 12:00:00 -- -- -- -- -- -- -- -- --
2019-08-03 11:00:00 -- -- -- -- -- -- -- -- --
2019-08-03 10:00:00 -- -- -- -- -- -- -- -- --
2019-08-03 09:00:00 -- -- -- -- -- -- -- -- --
2019-08-03 08:00:00 -- -- -- -- -- -- -- -- --
2019-08-03 07:00:00 -- -- -- -- -- -- -- -- --
2019-08-03 06:00:00 -- -- -- -- -- -- -- -- --
2019-08-03 05:00:00 -- -- -- -- -- -- -- -- --
2019-08-03 04:00:00 -- -- -- -- -- -- -- -- --
2019-08-03 03:00:00 -- -- -- -- -- -- -- -- --
2019-08-03 02:00:00 -- -- -- -- -- -- -- -- --
2019-08-03 01:00:00 -- -- -- -- -- -- -- -- --
2019-08-03 00:00:00 -- -- -- -- -- -- -- -- --
2019-08-02 23:00:00 -- -- -- -- -- -- -- -- --
2019-08-02 22:00:00 -- -- -- -- -- -- -- -- --
2019-08-02 21:00:00 -- -- -- -- -- -- -- -- --
2019-08-02 20:00:00 -- -- -- -- -- -- -- -- --
2019-08-02 19:00:00 -- -- -- -- -- -- -- -- --
2019-08-02 18:00:00 -- -- -- -- -- -- -- -- --
2019-08-02 17:00:00 -- -- -- -- -- -- -- -- --
2019-08-02 16:00:00 -- -- -- -- -- -- -- -- --
2019-08-02 15:00:00 -- -- -- -- -- -- -- -- --
2019-08-02 14:00:00 -- -- -- -- -- -- -- -- --
2019-08-02 13:00:00 -- -- -- -- -- -- -- -- --
2019-08-02 12:00:00 -- -- -- -- -- -- -- -- --
2019-08-02 11:00:00 -- -- -- -- -- -- -- -- --
2019-08-02 10:00:00 -- -- -- -- -- -- -- -- --
2019-08-02 09:00:00 -- -- -- -- -- -- -- -- --
2019-08-02 08:00:00 -- -- -- -- -- -- -- -- --
2019-08-02 07:00:00 -- -- -- -- -- -- -- -- --
2019-08-02 06:00:00 -- -- -- -- -- -- -- -- --
2019-08-02 05:00:00 -- -- -- -- -- -- -- -- --
2019-08-02 04:00:00 -- -- -- -- -- -- -- -- --
2019-08-02 03:00:00 -- -- -- -- -- -- -- -- --
2019-08-02 02:00:00 -- -- -- -- -- -- -- -- --
2019-08-02 01:00:00 -- -- -- -- -- -- -- -- --
2019-08-02 00:00:00 -- -- -- -- -- -- -- -- --
2019-08-01 23:00:00 -- -- -- -- -- -- -- -- --
2019-08-01 22:00:00 -- -- -- -- -- -- -- -- --
2019-08-01 21:00:00 -- -- -- -- -- -- -- -- --
2019-08-01 20:00:00 -- -- -- -- -- -- -- -- --
2019-08-01 19:00:00 -- -- -- -- -- -- -- -- --
2019-08-01 18:00:00 -- -- -- -- -- -- -- -- --
2019-08-01 17:00:00 -- -- -- -- -- -- -- -- --
2019-08-01 16:00:00 -- -- -- -- -- -- -- -- --
2019-08-01 15:00:00 -- -- -- -- -- -- -- -- --
2019-08-01 14:00:00 -- -- -- -- -- -- -- -- --
2019-08-01 13:00:00 -- -- -- -- -- -- -- -- --
2019-08-01 12:00:00 -- -- -- -- -- -- -- -- --
2019-08-01 11:00:00 -- -- -- -- -- -- -- -- --
2019-08-01 10:00:00 -- -- -- -- -- -- -- -- --
2019-08-01 09:00:00 -- -- -- -- -- -- -- -- --
2019-08-01 08:00:00 -- -- -- -- -- -- -- -- --
2019-08-01 07:00:00 -- -- -- -- -- -- -- -- --
2019-08-01 06:00:00 -- -- -- -- -- -- -- -- --
2019-08-01 05:00:00 -- -- -- -- -- -- -- -- --
2019-08-01 04:00:00 -- -- -- -- -- -- -- -- --
2019-08-01 03:00:00 -- -- -- -- -- -- -- -- --
2019-08-01 02:00:00 -- -- -- -- -- -- -- -- --
2019-08-01 01:00:00 -- -- -- -- -- -- -- -- --
2019-08-01 00:00:00 -- -- -- -- -- -- -- -- --
2019-07-31 23:00:00 -- -- -- -- -- -- -- -- --
2019-07-31 22:00:00 -- -- -- -- -- -- -- -- --
2019-07-31 21:00:00 -- -- -- -- -- -- -- -- --
2019-07-31 20:00:00 -- -- -- -- -- -- -- -- --
2019-07-31 19:00:00 -- -- -- -- -- -- -- -- --
2019-07-31 18:00:00 -- -- -- -- -- -- -- -- --
2019-07-31 17:00:00 -- -- -- -- -- -- -- -- --
2019-07-31 16:00:00 -- -- -- -- -- -- -- -- --
2019-07-31 15:00:00 -- -- -- -- -- -- -- -- --
2019-07-31 14:00:00 -- -- -- -- -- -- -- -- --
2019-07-31 13:00:00 -- -- -- -- -- -- -- -- --
2019-07-31 12:00:00 -- -- -- -- -- -- -- -- --
2019-07-31 11:00:00 -- -- -- -- -- -- -- -- --
2019-07-31 10:00:00 -- -- -- -- -- -- -- -- --
2019-07-31 09:00:00 -- -- -- -- -- -- -- -- --
2019-07-31 08:00:00 -- -- -- -- -- -- -- -- --
2019-07-31 07:00:00 -- -- -- -- -- -- -- -- --
2019-07-31 06:00:00 -- -- -- -- -- -- -- -- --
2019-07-31 05:00:00 -- -- -- -- -- -- -- -- --
2019-07-31 04:00:00 -- -- -- -- -- -- -- -- --
2019-07-31 03:00:00 -- -- -- -- -- -- -- -- --
2019-07-31 02:00:00 -- -- -- -- -- -- -- -- --
2019-07-31 01:00:00 -- -- -- -- -- -- -- -- --
2019-07-31 00:00:00 -- -- -- -- -- -- -- -- --
2019-07-30 23:00:00 -- -- -- -- -- -- -- -- --
2019-07-30 22:00:00 -- -- -- -- -- -- -- -- --
2019-07-30 21:00:00 -- -- -- -- -- -- -- -- --
2019-07-30 20:00:00 -- -- -- -- -- -- -- -- --
2019-07-30 19:00:00 -- -- -- -- -- -- -- -- --
2019-07-30 18:00:00 -- -- -- -- -- -- -- -- --
2019-07-30 17:00:00 -- -- -- -- -- -- -- -- --
2019-07-30 16:00:00 -- -- -- -- -- -- -- -- --
2019-07-30 15:00:00 -- -- -- -- -- -- -- -- --
2019-07-30 14:00:00 -- -- -- -- -- -- -- -- --
2019-07-30 13:00:00 -- -- -- -- -- -- -- -- --
2019-07-30 12:00:00 -- -- -- -- -- -- -- -- --
2019-07-30 11:00:00 -- -- -- -- -- -- -- -- --
2019-07-30 10:00:00 -- -- -- -- -- -- -- -- --
2019-07-30 09:00:00 -- -- -- -- -- -- -- -- --
2019-07-30 08:00:00 -- -- -- -- -- -- -- -- --
2019-07-30 07:00:00 -- -- -- -- -- -- -- -- --
2019-07-30 06:00:00 -- -- -- -- -- -- -- -- --
2019-07-30 05:00:00 -- -- -- -- -- -- -- -- --
2019-07-30 04:00:00 -- -- -- -- -- -- -- -- --
2019-07-30 03:00:00 -- -- -- -- -- -- -- -- --
2019-07-30 02:00:00 -- -- -- -- -- -- -- -- --
2019-07-30 01:00:00 -- -- -- -- -- -- -- -- --
2019-07-30 00:00:00 -- -- -- -- -- -- -- -- --
2019-07-29 23:00:00 -- -- -- -- -- -- -- -- --
2019-07-29 22:00:00 -- -- -- -- -- -- -- -- --
2019-07-29 21:00:00 -- -- -- -- -- -- -- -- --
2019-07-29 20:00:00 -- -- -- -- -- -- -- -- --
2019-07-29 19:00:00 -- -- -- -- -- -- -- -- --
2019-07-29 18:00:00 -- -- -- -- -- -- -- -- --
2019-07-29 17:00:00 -- -- -- -- -- -- -- -- --
2019-07-29 16:00:00 -- -- -- -- -- -- -- -- --
2019-07-29 15:00:00 -- -- -- -- -- -- -- -- --
2019-07-29 14:00:00 -- -- -- -- -- -- -- -- --
2019-07-29 13:00:00 -- -- -- -- -- -- -- -- --
2019-07-29 12:00:00 -- -- -- -- -- -- -- -- --
2019-07-29 11:00:00 -- -- -- -- -- -- -- -- --
2019-07-29 10:00:00 -- -- -- -- -- -- -- -- --
2019-07-29 09:00:00 -- -- -- -- -- -- -- -- --
2019-07-29 08:00:00 -- -- -- -- -- -- -- -- --
2019-07-29 07:00:00 -- -- -- -- -- -- -- -- --
2019-07-29 06:00:00 -- -- -- -- -- -- -- -- --
2019-07-29 05:00:00 -- -- -- -- -- -- -- -- --
2019-07-29 04:00:00 -- -- -- -- -- -- -- -- --
2019-07-29 03:00:00 -- -- -- -- -- -- -- -- --
2019-07-29 02:00:00 -- -- -- -- -- -- -- -- --
2019-07-29 01:00:00 -- -- -- -- -- -- -- -- --
2019-07-29 00:00:00 -- -- -- -- -- -- -- -- --
2019-07-28 23:00:00 -- -- -- -- -- -- -- -- --
2019-07-28 22:00:00 -- -- -- -- -- -- -- -- --
2019-07-28 21:00:00 -- -- -- -- -- -- -- -- --
2019-07-28 20:00:00 -- -- -- -- -- -- -- -- --
2019-07-28 19:00:00 -- -- -- -- -- -- -- -- --
2019-07-28 18:00:00 -- -- -- -- -- -- -- -- --
2019-07-28 17:00:00 -- -- -- -- -- -- -- -- --
2019-07-28 16:00:00 -- -- -- -- -- -- -- -- --
2019-07-28 15:00:00 -- -- -- -- -- -- -- -- --
2019-07-28 14:00:00 -- -- -- -- -- -- -- -- --
2019-07-28 13:00:00 -- -- -- -- -- -- -- -- --
2019-07-28 12:00:00 -- -- -- -- -- -- -- -- --
2019-07-28 11:00:00 -- -- -- -- -- -- -- -- --
2019-07-28 10:00:00 -- -- -- -- -- -- -- -- --
2019-07-28 09:00:00 -- -- -- -- -- -- -- -- --
2019-07-28 08:00:00 -- -- -- -- -- -- -- -- --
2019-07-28 07:00:00 -- -- -- -- -- -- -- -- --
2019-07-28 06:00:00 -- -- -- -- -- -- -- -- --
2019-07-28 05:00:00 -- -- -- -- -- -- -- -- --
2019-07-28 04:00:00 -- -- -- -- -- -- -- -- --
2019-07-28 03:00:00 -- -- -- -- -- -- -- -- --
2019-07-28 02:00:00 -- -- -- -- -- -- -- -- --
2019-07-28 01:00:00 -- -- -- -- -- -- -- -- --
2019-07-28 00:00:00 -- -- -- -- -- -- -- -- --
2019-07-27 23:00:00 -- -- -- -- -- -- -- -- --
2019-07-26 12:00:00 -- -- -- -- -- -- -- -- --
2019-07-26 11:00:00 -- -- -- -- -- -- -- -- --
2019-07-26 10:00:00 -- -- -- -- -- -- -- -- --
2019-07-26 09:00:00 -- -- -- -- -- -- -- -- --
2019-07-26 08:00:00 -- -- -- -- -- -- -- -- --
2019-07-26 07:00:00 -- -- -- -- -- -- -- -- --
2019-07-26 06:00:00 -- -- -- -- -- -- -- -- --
2019-07-26 05:00:00 -- -- -- -- -- -- -- -- --
2019-07-26 04:00:00 -- -- -- -- -- -- -- -- --
2019-07-26 03:00:00 -- -- -- -- -- -- -- -- --
2019-07-26 02:00:00 -- -- -- -- -- -- -- -- --
2019-07-26 01:00:00 -- -- -- -- -- -- -- -- --
2019-07-26 00:00:00 -- -- -- -- -- -- -- -- --
2019-07-25 23:00:00 -- -- -- -- -- -- -- -- --
2019-07-25 22:00:00 -- -- -- -- -- -- -- -- --
2019-07-25 21:00:00 -- -- -- -- -- -- -- -- --
2019-07-25 20:00:00 -- -- -- -- -- -- -- -- --
2019-07-25 19:00:00 -- -- -- -- -- -- -- -- --
2019-07-25 18:00:00 -- -- -- -- -- -- -- -- --
2019-07-25 17:00:00 -- -- -- -- -- -- -- -- --
2019-07-25 16:00:00 -- -- -- -- -- -- -- -- --
2019-07-25 15:00:00 -- -- -- -- -- -- -- -- --
2019-07-25 14:00:00 -- -- -- -- -- -- -- -- --
2019-07-25 13:00:00 -- -- -- -- -- -- -- -- --
2019-07-25 12:00:00 -- -- -- -- -- -- -- -- --
2019-07-25 11:00:00 -- -- -- -- -- -- -- -- --
2019-07-25 10:00:00 -- -- -- -- -- -- -- -- --
2019-07-25 09:00:00 -- -- -- -- -- -- -- -- --
2019-07-25 08:00:00 -- -- -- -- -- -- -- -- --
2019-07-25 07:00:00 -- -- -- -- -- -- -- -- --
2019-07-25 06:00:00 -- -- -- -- -- -- -- -- --
2019-07-25 05:00:00 -- -- -- -- -- -- -- -- --
2019-07-25 04:00:00 -- -- -- -- -- -- -- -- --
2019-07-25 03:00:00 -- -- -- -- -- -- -- -- --
2019-07-25 02:00:00 -- -- -- -- -- -- -- -- --
2019-07-25 01:00:00 -- -- -- -- -- -- -- -- --
2019-07-25 00:00:00 -- -- -- -- -- -- -- -- --
2019-07-24 23:00:00 -- -- -- -- -- -- -- -- --
2019-07-24 22:00:00 -- -- -- -- -- -- -- -- --
2019-07-24 21:00:00 -- -- -- -- -- -- -- -- --
2019-07-24 20:00:00 -- -- -- -- -- -- -- -- --
2019-07-24 19:00:00 -- -- -- -- -- -- -- -- --
2019-07-24 18:00:00 -- -- -- -- -- -- -- -- --
2019-07-24 17:00:00 -- -- -- -- -- -- -- -- --
2019-07-24 16:00:00 -- -- -- -- -- -- -- -- --
2019-07-24 15:00:00 -- -- -- -- -- -- -- -- --
2019-07-24 14:00:00 -- -- -- -- -- -- -- -- --
2019-07-24 13:00:00 -- -- -- -- -- -- -- -- --
2019-07-24 12:00:00 -- -- -- -- -- -- -- -- --
2019-07-24 11:00:00 -- -- -- -- -- -- -- -- --
2019-07-24 10:00:00 -- -- -- -- -- -- -- -- --
2019-07-24 09:00:00 -- -- -- -- -- -- -- -- --
2019-07-24 08:00:00 -- -- -- -- -- -- -- -- --
2019-07-24 07:00:00 -- -- -- -- -- -- -- -- --
2019-07-24 06:00:00 -- -- -- -- -- -- -- -- --
2019-07-24 05:00:00 -- -- -- -- -- -- -- -- --
2019-07-24 04:00:00 -- -- -- -- -- -- -- -- --
2019-07-24 03:00:00 -- -- -- -- -- -- -- -- --
2019-07-24 02:00:00 -- -- -- -- -- -- -- -- --
2019-07-24 01:00:00 -- -- -- -- -- -- -- -- --
2019-07-24 00:00:00 -- -- -- -- -- -- -- -- --
2019-07-23 23:00:00 -- -- -- -- -- -- -- -- --
2019-07-23 22:00:00 -- -- -- -- -- -- -- -- --
2019-07-23 21:00:00 -- -- -- -- -- -- -- -- --
2019-07-23 20:00:00 -- -- -- -- -- -- -- -- --
2019-07-23 19:00:00 -- -- -- -- -- -- -- -- --
2019-07-23 18:00:00 -- -- -- -- -- -- -- -- --
2019-07-23 17:00:00 -- -- -- -- -- -- -- -- --
2019-07-23 16:00:00 -- -- -- -- -- -- -- -- --
2019-07-23 15:00:00 -- -- -- -- -- -- -- -- --
2019-07-23 14:00:00 -- -- -- -- -- -- -- -- --
2019-07-23 13:00:00 -- -- -- -- -- -- -- -- --
2019-07-23 12:00:00 -- -- -- -- -- -- -- -- --
2019-07-23 11:00:00 -- -- -- -- -- -- -- -- --
2019-07-23 10:00:00 -- -- -- -- -- -- -- -- --
2019-07-23 09:00:00 -- -- -- -- -- -- -- -- --
2019-07-23 08:00:00 -- -- -- -- -- -- -- -- --
2019-07-23 07:00:00 -- -- -- -- -- -- -- -- --
2019-07-23 06:00:00 -- -- -- -- -- -- -- -- --
2019-07-23 05:00:00 -- -- -- -- -- -- -- -- --
2019-07-23 04:00:00 -- -- -- -- -- -- -- -- --
2019-07-23 03:00:00 -- -- -- -- -- -- -- -- --
2019-07-23 02:00:00 -- -- -- -- -- -- -- -- --
2019-07-23 01:00:00 -- -- -- -- -- -- -- -- --
2019-07-23 00:00:00 -- -- -- -- -- -- -- -- --
2019-07-22 23:00:00 -- -- -- -- -- -- -- -- --
2019-07-22 22:00:00 -- -- -- -- -- -- -- -- --
2019-07-22 21:00:00 -- -- -- -- -- -- -- -- --
2019-07-22 20:00:00 -- -- -- -- -- -- -- -- --
2019-07-22 19:00:00 -- -- -- -- -- -- -- -- --
2019-07-22 18:00:00 -- -- -- -- -- -- -- -- --
2019-07-22 17:00:00 -- -- -- -- -- -- -- -- --
2019-07-22 16:00:00 -- -- -- -- -- -- -- -- --
2019-07-22 15:00:00 -- -- -- -- -- -- -- -- --
2019-07-22 14:00:00 -- -- -- -- -- -- -- -- --
2019-07-22 13:00:00 -- -- -- -- -- -- -- -- --
2019-07-22 12:00:00 -- -- -- -- -- -- -- -- --
2019-07-22 11:00:00 -- -- -- -- -- -- -- -- --
2019-07-22 10:00:00 -- -- -- -- -- -- -- -- --
2019-07-22 09:00:00 -- -- -- -- -- -- -- -- --
2019-07-22 08:00:00 -- -- -- -- -- -- -- -- --
2019-07-22 07:00:00 -- -- -- -- -- -- -- -- --
2019-07-22 06:00:00 -- -- -- -- -- -- -- -- --
2019-07-22 05:00:00 -- -- -- -- -- -- -- -- --
2019-07-22 04:00:00 -- -- -- -- -- -- -- -- --
2019-07-22 03:00:00 -- -- -- -- -- -- -- -- --
2019-07-22 02:00:00 -- -- -- -- -- -- -- -- --
2019-07-22 01:00:00 -- -- -- -- -- -- -- -- --
2019-07-22 00:00:00 -- -- -- -- -- -- -- -- --
2019-07-21 23:00:00 -- -- -- -- -- -- -- -- --
2019-07-21 22:00:00 -- -- -- -- -- -- -- -- --
2019-07-21 21:00:00 -- -- -- -- -- -- -- -- --
2019-07-21 20:00:00 -- -- -- -- -- -- -- -- --
2019-07-21 19:00:00 -- -- -- -- -- -- -- -- --
2019-07-21 18:00:00 -- -- -- -- -- -- -- -- --
2019-07-21 17:00:00 -- -- -- -- -- -- -- -- --
2019-07-21 16:00:00 -- -- -- -- -- -- -- -- --
2019-07-21 15:00:00 -- -- -- -- -- -- -- -- --
2019-07-21 14:00:00 -- -- -- -- -- -- -- -- --
2019-07-21 13:00:00 -- -- -- -- -- -- -- -- --
2019-07-21 12:00:00 -- -- -- -- -- -- -- -- --
2019-07-21 11:00:00 -- -- -- -- -- -- -- -- --
2019-07-21 10:00:00 -- -- -- -- -- -- -- -- --
2019-07-21 09:00:00 -- -- -- -- -- -- -- -- --
2019-07-21 08:00:00 -- -- -- -- -- -- -- -- --
2019-07-21 07:00:00 -- -- -- -- -- -- -- -- --
2019-07-21 06:00:00 -- -- -- -- -- -- -- -- --
2019-07-21 05:00:00 -- -- -- -- -- -- -- -- --
2019-07-21 04:00:00 -- -- -- -- -- -- -- -- --
2019-07-21 03:00:00 -- -- -- -- -- -- -- -- --
2019-07-21 02:00:00 -- -- -- -- -- -- -- -- --
2019-07-21 01:00:00 -- -- -- -- -- -- -- -- --
2019-07-21 00:00:00 -- -- -- -- -- -- -- -- --